sensor_id;sensor_type;location;lat;lon;timestamp;P1;durP1;ratioP1;P2;durP2;ratioP2
13228;SDS011;6680;53.220;10.402;2023-07-22T00:00:29;3.23;;;2.90;;
13228;SDS011;6680;53.220;10.402;2023-07-22T00:02:56;3.67;;;3.30;;
13228;SDS011;6680;53.220;10.402;2023-07-22T00:05:23;3.60;;;2.97;;
13228;SDS011;6680;53.220;10.402;2023-07-22T00:07:50;3.23;;;2.87;;
13228;SDS011;6680;53.220;10.402;2023-07-22T00:10:17;4.67;;;3.20;;
13228;SDS011;6680;53.220;10.402;2023-07-22T00:12:44;6.37;;;3.50;;
13228;SDS011;6680;53.220;10.402;2023-07-22T00:15:12;3.50;;;3.20;;
13228;SDS011;6680;53.220;10.402;2023-07-22T00:17:39;4.40;;;3.17;;
13228;SDS011;6680;53.220;10.402;2023-07-22T00:20:07;4.30;;;2.87;;
13228;SDS011;6680;53.220;10.402;2023-07-22T00:22:36;4.80;;;2.80;;
13228;SDS011;6680;53.220;10.402;2023-07-22T00:25:05;3.90;;;3.20;;
13228;SDS011;6680;53.220;10.402;2023-07-22T00:27:32;3.90;;;3.43;;
13228;SDS011;6680;53.220;10.402;2023-07-22T00:29:59;3.70;;;3.37;;
13228;SDS011;6680;53.220;10.402;2023-07-22T00:32:27;3.17;;;2.87;;
13228;SDS011;6680;53.220;10.402;2023-07-22T00:34:54;4.23;;;3.07;;
13228;SDS011;6680;53.220;10.402;2023-07-22T00:37:20;4.00;;;3.50;;
13228;SDS011;6680;53.220;10.402;2023-07-22T00:39:47;4.20;;;3.07;;
13228;SDS011;6680;53.220;10.402;2023-07-22T00:42:14;4.60;;;3.80;;
13228;SDS011;6680;53.220;10.402;2023-07-22T00:44:40;5.93;;;2.87;;
13228;SDS011;6680;53.220;10.402;2023-07-22T00:47:07;4.10;;;3.53;;
13228;SDS011;6680;53.220;10.402;2023-07-22T00:49:35;5.60;;;3.67;;
13228;SDS011;6680;53.220;10.402;2023-07-22T00:52:03;7.03;;;4.00;;
13228;SDS011;6680;53.220;10.402;2023-07-22T00:54:30;4.17;;;3.53;;
13228;SDS011;6680;53.220;10.402;2023-07-22T00:56:57;4.23;;;3.53;;
13228;SDS011;6680;53.220;10.402;2023-07-22T00:59:24;4.40;;;3.70;;
13228;SDS011;6680;53.220;10.402;2023-07-22T01:01:51;5.60;;;3.90;;
13228;SDS011;6680;53.220;10.402;2023-07-22T01:04:19;5.00;;;4.13;;
13228;SDS011;6680;53.220;10.402;2023-07-22T01:06:48;5.67;;;4.20;;
13228;SDS011;6680;53.220;10.402;2023-07-22T01:09:18;5.60;;;4.50;;
13228;SDS011;6680;53.220;10.402;2023-07-22T01:11:44;5.07;;;4.20;;
13228;SDS011;6680;53.220;10.402;2023-07-22T01:14:11;4.43;;;3.80;;
13228;SDS011;6680;53.220;10.402;2023-07-22T01:16:38;4.87;;;4.20;;
13228;SDS011;6680;53.220;10.402;2023-07-22T01:19:05;6.70;;;4.40;;
13228;SDS011;6680;53.220;10.402;2023-07-22T01:21:33;6.37;;;4.23;;
13228;SDS011;6680;53.220;10.402;2023-07-22T01:24:02;5.50;;;4.10;;
13228;SDS011;6680;53.220;10.402;2023-07-22T01:26:29;7.83;;;4.27;;
13228;SDS011;6680;53.220;10.402;2023-07-22T01:29:05;6.83;;;4.57;;
13228;SDS011;6680;53.220;10.402;2023-07-22T01:31:33;6.33;;;4.43;;
13228;SDS011;6680;53.220;10.402;2023-07-22T01:34:01;6.60;;;4.60;;
13228;SDS011;6680;53.220;10.402;2023-07-22T01:36:29;5.57;;;4.90;;
13228;SDS011;6680;53.220;10.402;2023-07-22T01:38:55;5.43;;;4.43;;
13228;SDS011;6680;53.220;10.402;2023-07-22T01:41:23;7.80;;;5.40;;
13228;SDS011;6680;53.220;10.402;2023-07-22T01:43:50;6.40;;;5.33;;
13228;SDS011;6680;53.220;10.402;2023-07-22T01:46:17;6.53;;;5.17;;
13228;SDS011;6680;53.220;10.402;2023-07-22T01:48:43;6.13;;;5.00;;
13228;SDS011;6680;53.220;10.402;2023-07-22T01:51:10;7.50;;;5.27;;
13228;SDS011;6680;53.220;10.402;2023-07-22T01:53:37;5.87;;;4.83;;
13228;SDS011;6680;53.220;10.402;2023-07-22T01:56:04;7.23;;;5.27;;
13228;SDS011;6680;53.220;10.402;2023-07-22T01:58:32;8.57;;;5.53;;
13228;SDS011;6680;53.220;10.402;2023-07-22T02:00:59;8.13;;;5.83;;
13228;SDS011;6680;53.220;10.402;2023-07-22T02:03:26;7.40;;;5.50;;
13228;SDS011;6680;53.220;10.402;2023-07-22T02:05:53;6.60;;;5.13;;
13228;SDS011;6680;53.220;10.402;2023-07-22T02:08:27;7.97;;;5.83;;
13228;SDS011;6680;53.220;10.402;2023-07-22T02:10:54;7.73;;;5.60;;
13228;SDS011;6680;53.220;10.402;2023-07-22T02:13:21;14.20;;;6.00;;
13228;SDS011;6680;53.220;10.402;2023-07-22T02:15:49;8.40;;;5.47;;
13228;SDS011;6680;53.220;10.402;2023-07-22T02:18:15;8.10;;;5.63;;
13228;SDS011;6680;53.220;10.402;2023-07-22T02:20:42;8.87;;;6.33;;
13228;SDS011;6680;53.220;10.402;2023-07-22T02:23:09;8.27;;;5.77;;
13228;SDS011;6680;53.220;10.402;2023-07-22T02:25:36;8.77;;;5.73;;
13228;SDS011;6680;53.220;10.402;2023-07-22T02:28:03;11.50;;;5.90;;
13228;SDS011;6680;53.220;10.402;2023-07-22T02:30:29;9.13;;;6.10;;
13228;SDS011;6680;53.220;10.402;2023-07-22T02:32:57;9.17;;;6.27;;
13228;SDS011;6680;53.220;10.402;2023-07-22T02:35:24;9.60;;;6.40;;
13228;SDS011;6680;53.220;10.402;2023-07-22T02:37:51;11.17;;;6.33;;
13228;SDS011;6680;53.220;10.402;2023-07-22T02:40:18;9.63;;;6.30;;
13228;SDS011;6680;53.220;10.402;2023-07-22T02:42:44;11.57;;;6.90;;
13228;SDS011;6680;53.220;10.402;2023-07-22T02:45:11;10.33;;;6.33;;
13228;SDS011;6680;53.220;10.402;2023-07-22T02:47:38;11.50;;;6.87;;
13228;SDS011;6680;53.220;10.402;2023-07-22T02:50:07;9.57;;;6.07;;
13228;SDS011;6680;53.220;10.402;2023-07-22T02:52:34;7.50;;;5.93;;
13228;SDS011;6680;53.220;10.402;2023-07-22T02:55:05;9.67;;;5.80;;
13228;SDS011;6680;53.220;10.402;2023-07-22T02:57:36;9.27;;;6.67;;
13228;SDS011;6680;53.220;10.402;2023-07-22T03:00:04;9.33;;;6.80;;
13228;SDS011;6680;53.220;10.402;2023-07-22T03:02:33;10.37;;;6.50;;
13228;SDS011;6680;53.220;10.402;2023-07-22T03:05:00;9.97;;;7.07;;
13228;SDS011;6680;53.220;10.402;2023-07-22T03:07:29;8.77;;;6.47;;
13228;SDS011;6680;53.220;10.402;2023-07-22T03:09:55;10.23;;;6.60;;
13228;SDS011;6680;53.220;10.402;2023-07-22T03:12:22;10.20;;;6.70;;
13228;SDS011;6680;53.220;10.402;2023-07-22T03:14:49;9.00;;;5.67;;
13228;SDS011;6680;53.220;10.402;2023-07-22T03:17:17;8.37;;;6.30;;
13228;SDS011;6680;53.220;10.402;2023-07-22T03:19:44;11.53;;;6.37;;
13228;SDS011;6680;53.220;10.402;2023-07-22T03:22:13;11.67;;;7.00;;
13228;SDS011;6680;53.220;10.402;2023-07-22T03:24:42;10.70;;;6.10;;
13228;SDS011;6680;53.220;10.402;2023-07-22T03:27:09;10.73;;;6.73;;
13228;SDS011;6680;53.220;10.402;2023-07-22T03:29:36;9.37;;;5.73;;
13228;SDS011;6680;53.220;10.402;2023-07-22T03:32:04;12.20;;;6.17;;
13228;SDS011;6680;53.220;10.402;2023-07-22T03:34:31;13.20;;;7.37;;
13228;SDS011;6680;53.220;10.402;2023-07-22T03:36:58;10.27;;;5.63;;
13228;SDS011;6680;53.220;10.402;2023-07-22T03:39:25;11.20;;;6.57;;
13228;SDS011;6680;53.220;10.402;2023-07-22T03:41:53;10.30;;;6.17;;
13228;SDS011;6680;53.220;10.402;2023-07-22T03:44:19;13.80;;;6.33;;
13228;SDS011;6680;53.220;10.402;2023-07-22T03:46:46;11.80;;;7.07;;
13228;SDS011;6680;53.220;10.402;2023-07-22T03:49:13;13.37;;;6.40;;
13228;SDS011;6680;53.220;10.402;2023-07-22T03:51:40;10.00;;;6.67;;
13228;SDS011;6680;53.220;10.402;2023-07-22T03:54:07;9.80;;;6.20;;
13228;SDS011;6680;53.220;10.402;2023-07-22T03:56:33;11.50;;;6.60;;
13228;SDS011;6680;53.220;10.402;2023-07-22T03:59:02;11.87;;;7.27;;
13228;SDS011;6680;53.220;10.402;2023-07-22T04:01:28;10.73;;;6.33;;
13228;SDS011;6680;53.220;10.402;2023-07-22T04:03:55;12.03;;;7.10;;
13228;SDS011;6680;53.220;10.402;2023-07-22T04:06:22;11.40;;;6.73;;
13228;SDS011;6680;53.220;10.402;2023-07-22T04:08:49;11.50;;;6.40;;
13228;SDS011;6680;53.220;10.402;2023-07-22T04:11:15;10.73;;;7.07;;
13228;SDS011;6680;53.220;10.402;2023-07-22T04:13:42;10.10;;;6.70;;
13228;SDS011;6680;53.220;10.402;2023-07-22T04:16:10;11.47;;;6.20;;
13228;SDS011;6680;53.220;10.402;2023-07-22T04:18:37;12.83;;;6.70;;
13228;SDS011;6680;53.220;10.402;2023-07-22T04:21:03;13.70;;;7.20;;
13228;SDS011;6680;53.220;10.402;2023-07-22T04:23:30;11.60;;;6.10;;
13228;SDS011;6680;53.220;10.402;2023-07-22T04:25:58;12.10;;;7.07;;
13228;SDS011;6680;53.220;10.402;2023-07-22T04:28:24;8.57;;;6.00;;
13228;SDS011;6680;53.220;10.402;2023-07-22T04:30:54;13.67;;;6.83;;
13228;SDS011;6680;53.220;10.402;2023-07-22T04:33:24;8.73;;;5.93;;
13228;SDS011;6680;53.220;10.402;2023-07-22T04:35:52;11.20;;;5.53;;
13228;SDS011;6680;53.220;10.402;2023-07-22T04:38:20;11.27;;;6.17;;
13228;SDS011;6680;53.220;10.402;2023-07-22T04:40:47;12.40;;;5.53;;
13228;SDS011;6680;53.220;10.402;2023-07-22T04:43:14;9.07;;;5.43;;
13228;SDS011;6680;53.220;10.402;2023-07-22T04:45:41;10.60;;;5.80;;
13228;SDS011;6680;53.220;10.402;2023-07-22T04:48:07;6.70;;;4.93;;
13228;SDS011;6680;53.220;10.402;2023-07-22T04:50:35;10.23;;;5.40;;
13228;SDS011;6680;53.220;10.402;2023-07-22T04:53:05;10.60;;;6.40;;
13228;SDS011;6680;53.220;10.402;2023-07-22T04:55:32;9.10;;;5.60;;
13228;SDS011;6680;53.220;10.402;2023-07-22T04:57:59;7.13;;;5.43;;
13228;SDS011;6680;53.220;10.402;2023-07-22T05:00:25;10.60;;;6.10;;
13228;SDS011;6680;53.220;10.402;2023-07-22T05:02:54;9.23;;;5.20;;
13228;SDS011;6680;53.220;10.402;2023-07-22T05:05:21;10.13;;;5.80;;
13228;SDS011;6680;53.220;10.402;2023-07-22T05:07:49;8.43;;;5.13;;
13228;SDS011;6680;53.220;10.402;2023-07-22T05:10:17;11.13;;;5.40;;
13228;SDS011;6680;53.220;10.402;2023-07-22T05:12:44;9.70;;;5.10;;
13228;SDS011;6680;53.220;10.402;2023-07-22T05:15:11;9.17;;;5.23;;
13228;SDS011;6680;53.220;10.402;2023-07-22T05:17:39;7.13;;;4.70;;
13228;SDS011;6680;53.220;10.402;2023-07-22T05:20:06;6.97;;;4.67;;
13228;SDS011;6680;53.220;10.402;2023-07-22T05:22:35;7.60;;;4.30;;
13228;SDS011;6680;53.220;10.402;2023-07-22T05:25:04;8.67;;;4.60;;
13228;SDS011;6680;53.220;10.402;2023-07-22T05:27:32;6.00;;;5.00;;
13228;SDS011;6680;53.220;10.402;2023-07-22T05:29:59;7.03;;;4.47;;
13228;SDS011;6680;53.220;10.402;2023-07-22T05:32:25;5.67;;;4.50;;
13228;SDS011;6680;53.220;10.402;2023-07-22T05:34:54;6.50;;;4.33;;
13228;SDS011;6680;53.220;10.402;2023-07-22T05:37:21;7.23;;;4.90;;
13228;SDS011;6680;53.220;10.402;2023-07-22T05:39:48;5.13;;;3.80;;
13228;SDS011;6680;53.220;10.402;2023-07-22T05:42:16;12.03;;;4.43;;
13228;SDS011;6680;53.220;10.402;2023-07-22T05:44:43;5.90;;;4.37;;
13228;SDS011;6680;53.220;10.402;2023-07-22T05:47:09;6.17;;;4.07;;
13228;SDS011;6680;53.220;10.402;2023-07-22T05:49:36;7.53;;;4.50;;
13228;SDS011;6680;53.220;10.402;2023-07-22T05:52:03;6.90;;;4.43;;
13228;SDS011;6680;53.220;10.402;2023-07-22T05:54:30;5.70;;;4.17;;
13228;SDS011;6680;53.220;10.402;2023-07-22T05:56:57;7.17;;;4.87;;
13228;SDS011;6680;53.220;10.402;2023-07-22T05:59:25;5.63;;;3.80;;
13228;SDS011;6680;53.220;10.402;2023-07-22T06:01:51;5.60;;;4.30;;
13228;SDS011;6680;53.220;10.402;2023-07-22T06:04:18;5.03;;;3.53;;
13228;SDS011;6680;53.220;10.402;2023-07-22T06:06:45;9.87;;;4.10;;
13228;SDS011;6680;53.220;10.402;2023-07-22T06:09:12;5.70;;;3.77;;
13228;SDS011;6680;53.220;10.402;2023-07-22T06:11:38;5.17;;;3.70;;
13228;SDS011;6680;53.220;10.402;2023-07-22T06:14:05;5.00;;;4.10;;
13228;SDS011;6680;53.220;10.402;2023-07-22T06:16:34;6.80;;;4.00;;
13228;SDS011;6680;53.220;10.402;2023-07-22T06:19:01;4.23;;;3.57;;
13228;SDS011;6680;53.220;10.402;2023-07-22T06:21:27;8.30;;;4.20;;
13228;SDS011;6680;53.220;10.402;2023-07-22T06:23:54;5.07;;;3.60;;
13228;SDS011;6680;53.220;10.402;2023-07-22T06:26:21;6.93;;;4.10;;
13228;SDS011;6680;53.220;10.402;2023-07-22T06:28:48;6.40;;;3.87;;
13228;SDS011;6680;53.220;10.402;2023-07-22T06:31:14;4.07;;;3.67;;
13228;SDS011;6680;53.220;10.402;2023-07-22T06:33:44;5.23;;;4.10;;
13228;SDS011;6680;53.220;10.402;2023-07-22T06:36:11;7.50;;;4.50;;
13228;SDS011;6680;53.220;10.402;2023-07-22T06:38:38;5.97;;;4.00;;
13228;SDS011;6680;53.220;10.402;2023-07-22T06:41:04;5.97;;;4.53;;
13228;SDS011;6680;53.220;10.402;2023-07-22T06:43:31;6.47;;;3.97;;
13228;SDS011;6680;53.220;10.402;2023-07-22T06:45:58;6.43;;;4.73;;
13228;SDS011;6680;53.220;10.402;2023-07-22T06:48:25;10.83;;;4.50;;
13228;SDS011;6680;53.220;10.402;2023-07-22T06:50:53;8.13;;;4.33;;
13228;SDS011;6680;53.220;10.402;2023-07-22T06:53:19;5.77;;;3.97;;
13228;SDS011;6680;53.220;10.402;2023-07-22T06:55:49;6.53;;;4.50;;
13228;SDS011;6680;53.220;10.402;2023-07-22T06:58:17;5.33;;;4.57;;
13228;SDS011;6680;53.220;10.402;2023-07-22T07:00:43;6.07;;;4.17;;
13228;SDS011;6680;53.220;10.402;2023-07-22T07:03:10;7.40;;;3.90;;
13228;SDS011;6680;53.220;10.402;2023-07-22T07:05:37;5.83;;;4.17;;
13228;SDS011;6680;53.220;10.402;2023-07-22T07:08:07;5.33;;;4.13;;
13228;SDS011;6680;53.220;10.402;2023-07-22T07:10:38;8.73;;;3.90;;
13228;SDS011;6680;53.220;10.402;2023-07-22T07:13:05;5.17;;;4.30;;
13228;SDS011;6680;53.220;10.402;2023-07-22T07:15:32;6.53;;;4.13;;
13228;SDS011;6680;53.220;10.402;2023-07-22T07:17:58;4.40;;;3.37;;
13228;SDS011;6680;53.220;10.402;2023-07-22T07:20:25;7.80;;;3.57;;
13228;SDS011;6680;53.220;10.402;2023-07-22T07:22:52;4.00;;;3.57;;
13228;SDS011;6680;53.220;10.402;2023-07-22T07:25:20;4.07;;;3.63;;
13228;SDS011;6680;53.220;10.402;2023-07-22T07:27:47;3.53;;;3.17;;
13228;SDS011;6680;53.220;10.402;2023-07-22T07:30:14;4.43;;;4.03;;
13228;SDS011;6680;53.220;10.402;2023-07-22T07:32:40;5.23;;;3.83;;
13228;SDS011;6680;53.220;10.402;2023-07-22T07:35:07;4.13;;;3.13;;
13228;SDS011;6680;53.220;10.402;2023-07-22T07:37:35;3.70;;;3.13;;
13228;SDS011;6680;53.220;10.402;2023-07-22T07:40:02;4.73;;;3.60;;
13228;SDS011;6680;53.220;10.402;2023-07-22T07:42:30;5.27;;;3.43;;
13228;SDS011;6680;53.220;10.402;2023-07-22T07:44:57;3.47;;;3.17;;
13228;SDS011;6680;53.220;10.402;2023-07-22T07:47:24;4.50;;;3.27;;
13228;SDS011;6680;53.220;10.402;2023-07-22T07:49:50;3.73;;;3.43;;
13228;SDS011;6680;53.220;10.402;2023-07-22T07:52:17;5.63;;;3.03;;
13228;SDS011;6680;53.220;10.402;2023-07-22T07:54:44;6.63;;;3.67;;
13228;SDS011;6680;53.220;10.402;2023-07-22T07:57:10;4.37;;;3.03;;
13228;SDS011;6680;53.220;10.402;2023-07-22T07:59:38;3.60;;;2.90;;
13228;SDS011;6680;53.220;10.402;2023-07-22T08:02:05;5.57;;;2.77;;
13228;SDS011;6680;53.220;10.402;2023-07-22T08:04:34;3.90;;;3.03;;
13228;SDS011;6680;53.220;10.402;2023-07-22T08:07:02;3.70;;;2.87;;
13228;SDS011;6680;53.220;10.402;2023-07-22T08:09:29;4.60;;;3.23;;
13228;SDS011;6680;53.220;10.402;2023-07-22T08:11:56;3.03;;;2.73;;
13228;SDS011;6680;53.220;10.402;2023-07-22T08:14:23;5.07;;;2.87;;
13228;SDS011;6680;53.220;10.402;2023-07-22T08:16:51;5.07;;;3.43;;
13228;SDS011;6680;53.220;10.402;2023-07-22T08:19:17;3.70;;;2.90;;
13228;SDS011;6680;53.220;10.402;2023-07-22T08:21:44;4.90;;;2.43;;
13228;SDS011;6680;53.220;10.402;2023-07-22T08:24:11;3.30;;;2.80;;
13228;SDS011;6680;53.220;10.402;2023-07-22T08:26:37;3.17;;;2.13;;
13228;SDS011;6680;53.220;10.402;2023-07-22T08:29:04;2.40;;;2.17;;
13228;SDS011;6680;53.220;10.402;2023-07-22T08:31:31;3.10;;;2.30;;
13228;SDS011;6680;53.220;10.402;2023-07-22T08:33:59;2.33;;;2.13;;
13228;SDS011;6680;53.220;10.402;2023-07-22T08:36:26;3.07;;;2.37;;
13228;SDS011;6680;53.220;10.402;2023-07-22T08:38:52;3.13;;;2.00;;
13228;SDS011;6680;53.220;10.402;2023-07-22T08:41:19;3.83;;;2.53;;
13228;SDS011;6680;53.220;10.402;2023-07-22T08:43:47;2.50;;;2.30;;
13228;SDS011;6680;53.220;10.402;2023-07-22T08:46:16;4.10;;;2.60;;
13228;SDS011;6680;53.220;10.402;2023-07-22T08:48:47;2.43;;;2.17;;
13228;SDS011;6680;53.220;10.402;2023-07-22T08:51:20;2.17;;;1.97;;
13228;SDS011;6680;53.220;10.402;2023-07-22T08:53:48;2.03;;;1.87;;
13228;SDS011;6680;53.220;10.402;2023-07-22T08:56:16;2.17;;;1.97;;
13228;SDS011;6680;53.220;10.402;2023-07-22T08:58:43;2.83;;;1.87;;
13228;SDS011;6680;53.220;10.402;2023-07-22T09:01:12;2.87;;;1.83;;
13228;SDS011;6680;53.220;10.402;2023-07-22T09:03:39;3.50;;;1.87;;
13228;SDS011;6680;53.220;10.402;2023-07-22T09:06:07;3.40;;;1.80;;
13228;SDS011;6680;53.220;10.402;2023-07-22T09:08:35;2.20;;;2.00;;
13228;SDS011;6680;53.220;10.402;2023-07-22T09:11:03;2.33;;;2.10;;
13228;SDS011;6680;53.220;10.402;2023-07-22T09:13:30;2.17;;;1.97;;
13228;SDS011;6680;53.220;10.402;2023-07-22T09:15:57;2.33;;;2.13;;
13228;SDS011;6680;53.220;10.402;2023-07-22T09:18:25;2.20;;;2.00;;
13228;SDS011;6680;53.220;10.402;2023-07-22T09:20:51;2.77;;;1.83;;
13228;SDS011;6680;53.220;10.402;2023-07-22T09:23:18;4.60;;;2.10;;
13228;SDS011;6680;53.220;10.402;2023-07-22T09:26:09;4.13;;;2.40;;
13228;SDS011;6680;53.220;10.402;2023-07-22T09:28:52;3.63;;;2.30;;
13228;SDS011;6680;53.220;10.402;2023-07-22T09:31:20;3.07;;;1.73;;
13228;SDS011;6680;53.220;10.402;2023-07-22T09:33:46;2.23;;;2.07;;
13228;SDS011;6680;53.220;10.402;2023-07-22T09:36:13;2.00;;;1.90;;
13228;SDS011;6680;53.220;10.402;2023-07-22T09:38:40;3.43;;;2.23;;
13228;SDS011;6680;53.220;10.402;2023-07-22T09:41:08;3.87;;;1.90;;
13228;SDS011;6680;53.220;10.402;2023-07-22T09:43:35;2.30;;;2.10;;
13228;SDS011;6680;53.220;10.402;2023-07-22T09:46:07;1.50;;;1.40;;
13228;SDS011;6680;53.220;10.402;2023-07-22T09:48:41;4.13;;;2.00;;
13228;SDS011;6680;53.220;10.402;2023-07-22T09:51:11;1.87;;;1.67;;
13228;SDS011;6680;53.220;10.402;2023-07-22T09:53:44;3.70;;;1.83;;
13228;SDS011;6680;53.220;10.402;2023-07-22T09:56:13;4.27;;;1.70;;
13228;SDS011;6680;53.220;10.402;2023-07-22T09:58:40;1.90;;;1.70;;
13228;SDS011;6680;53.220;10.402;2023-07-22T10:01:07;2.10;;;1.83;;
13228;SDS011;6680;53.220;10.402;2023-07-22T10:03:34;1.90;;;1.80;;
13228;SDS011;6680;53.220;10.402;2023-07-22T10:06:03;2.00;;;1.90;;
13228;SDS011;6680;53.220;10.402;2023-07-22T10:08:34;3.97;;;1.83;;
13228;SDS011;6680;53.220;10.402;2023-07-22T10:11:03;2.00;;;1.83;;
13228;SDS011;6680;53.220;10.402;2023-07-22T10:13:36;2.33;;;1.80;;
13228;SDS011;6680;53.220;10.402;2023-07-22T10:16:04;3.33;;;1.77;;
13228;SDS011;6680;53.220;10.402;2023-07-22T10:18:32;2.33;;;1.43;;
13228;SDS011;6680;53.220;10.402;2023-07-22T10:20:59;5.10;;;2.00;;
13228;SDS011;6680;53.220;10.402;2023-07-22T10:23:27;2.90;;;2.10;;
13228;SDS011;6680;53.220;10.402;2023-07-22T10:25:57;3.00;;;1.93;;
13228;SDS011;6680;53.220;10.402;2023-07-22T10:28:24;2.80;;;2.23;;
13228;SDS011;6680;53.220;10.402;2023-07-22T10:30:53;2.50;;;2.03;;
13228;SDS011;6680;53.220;10.402;2023-07-22T10:33:20;2.40;;;1.87;;
13228;SDS011;6680;53.220;10.402;2023-07-22T10:36:01;2.83;;;2.00;;
13228;SDS011;6680;53.220;10.402;2023-07-22T10:38:30;3.27;;;2.20;;
13228;SDS011;6680;53.220;10.402;2023-07-22T10:40:56;2.37;;;2.17;;
13228;SDS011;6680;53.220;10.402;2023-07-22T10:43:24;3.47;;;2.07;;
13228;SDS011;6680;53.220;10.402;2023-07-22T10:45:54;2.70;;;2.33;;
13228;SDS011;6680;53.220;10.402;2023-07-22T10:48:23;2.27;;;2.07;;
13228;SDS011;6680;53.220;10.402;2023-07-22T10:50:53;2.67;;;2.33;;
13228;SDS011;6680;53.220;10.402;2023-07-22T10:53:28;2.57;;;2.37;;
13228;SDS011;6680;53.220;10.402;2023-07-22T10:58:57;3.77;;;2.20;;
13228;SDS011;6680;53.220;10.402;2023-07-22T11:01:33;4.10;;;2.70;;
13228;SDS011;6680;53.220;10.402;2023-07-22T11:04:08;4.57;;;2.70;;
13228;SDS011;6680;53.220;10.402;2023-07-22T11:06:56;3.00;;;2.70;;
13228;SDS011;6680;53.220;10.402;2023-07-22T11:09:37;3.70;;;3.10;;
13228;SDS011;6680;53.220;10.402;2023-07-22T11:12:05;3.03;;;2.40;;
13228;SDS011;6680;53.220;10.402;2023-07-22T11:14:34;2.80;;;2.47;;
13228;SDS011;6680;53.220;10.402;2023-07-22T11:17:05;3.40;;;2.70;;
13228;SDS011;6680;53.220;10.402;2023-07-22T11:19:34;3.30;;;3.00;;
13228;SDS011;6680;53.220;10.402;2023-07-22T11:22:01;2.77;;;2.57;;
13228;SDS011;6680;53.220;10.402;2023-07-22T11:24:28;3.17;;;2.87;;
13228;SDS011;6680;53.220;10.402;2023-07-22T11:26:55;3.27;;;2.97;;
13228;SDS011;6680;53.220;10.402;2023-07-22T11:29:22;4.93;;;3.30;;
13228;SDS011;6680;53.220;10.402;2023-07-22T11:31:49;4.73;;;3.30;;
13228;SDS011;6680;53.220;10.402;2023-07-22T11:34:19;4.30;;;3.23;;
13228;SDS011;6680;53.220;10.402;2023-07-22T11:36:47;4.47;;;3.43;;
13228;SDS011;6680;53.220;10.402;2023-07-22T11:39:15;4.83;;;3.30;;
13228;SDS011;6680;53.220;10.402;2023-07-22T11:41:42;6.33;;;2.83;;
13228;SDS011;6680;53.220;10.402;2023-07-22T11:44:11;5.10;;;3.30;;
13228;SDS011;6680;53.220;10.402;2023-07-22T11:46:51;3.70;;;3.20;;
13228;SDS011;6680;53.220;10.402;2023-07-22T11:49:24;5.30;;;3.63;;
13228;SDS011;6680;53.220;10.402;2023-07-22T11:51:53;3.60;;;2.90;;
13228;SDS011;6680;53.220;10.402;2023-07-22T11:54:21;3.90;;;3.13;;
13228;SDS011;6680;53.220;10.402;2023-07-22T11:56:48;3.53;;;3.23;;
13228;SDS011;6680;53.220;10.402;2023-07-22T11:59:15;4.17;;;3.27;;
13228;SDS011;6680;53.220;10.402;2023-07-22T12:01:43;3.30;;;3.00;;
13228;SDS011;6680;53.220;10.402;2023-07-22T12:04:11;4.80;;;3.40;;
13228;SDS011;6680;53.220;10.402;2023-07-22T12:06:40;4.40;;;3.20;;
13228;SDS011;6680;53.220;10.402;2023-07-22T12:09:07;4.10;;;3.40;;
13228;SDS011;6680;53.220;10.402;2023-07-22T12:11:35;3.70;;;3.30;;
13228;SDS011;6680;53.220;10.402;2023-07-22T12:14:08;3.90;;;3.17;;
13228;SDS011;6680;53.220;10.402;2023-07-22T12:16:36;6.33;;;3.37;;
13228;SDS011;6680;53.220;10.402;2023-07-22T12:19:04;4.80;;;3.07;;
13228;SDS011;6680;53.220;10.402;2023-07-22T12:21:31;3.77;;;2.80;;
13228;SDS011;6680;53.220;10.402;2023-07-22T12:24:00;4.57;;;3.60;;
13228;SDS011;6680;53.220;10.402;2023-07-22T12:26:28;4.60;;;3.53;;
13228;SDS011;6680;53.220;10.402;2023-07-22T12:28:54;5.07;;;3.97;;
13228;SDS011;6680;53.220;10.402;2023-07-22T12:31:21;3.40;;;2.93;;
13228;SDS011;6680;53.220;10.402;2023-07-22T12:33:48;4.60;;;3.63;;
13228;SDS011;6680;53.220;10.402;2023-07-22T12:36:14;5.30;;;4.23;;
13228;SDS011;6680;53.220;10.402;2023-07-22T12:38:41;4.20;;;3.70;;
13228;SDS011;6680;53.220;10.402;2023-07-22T12:41:09;5.43;;;3.80;;
13228;SDS011;6680;53.220;10.402;2023-07-22T12:43:36;5.23;;;4.00;;
13228;SDS011;6680;53.220;10.402;2023-07-22T12:46:03;4.83;;;3.97;;
13228;SDS011;6680;53.220;10.402;2023-07-22T12:48:30;5.63;;;3.53;;
13228;SDS011;6680;53.220;10.402;2023-07-22T12:50:57;4.07;;;3.17;;
13228;SDS011;6680;53.220;10.402;2023-07-22T12:53:24;5.40;;;4.00;;
13228;SDS011;6680;53.220;10.402;2023-07-22T12:55:51;4.13;;;3.70;;
13228;SDS011;6680;53.220;10.402;2023-07-22T12:58:19;5.17;;;3.70;;
13228;SDS011;6680;53.220;10.402;2023-07-22T13:00:46;5.30;;;4.00;;
13228;SDS011;6680;53.220;10.402;2023-07-22T13:03:12;4.67;;;3.83;;
13228;SDS011;6680;53.220;10.402;2023-07-22T13:05:39;4.27;;;3.87;;
13228;SDS011;6680;53.220;10.402;2023-07-22T13:08:06;4.40;;;4.00;;
13228;SDS011;6680;53.220;10.402;2023-07-22T13:10:33;3.67;;;3.30;;
13228;SDS011;6680;53.220;10.402;2023-07-22T13:13:02;3.90;;;3.47;;
13228;SDS011;6680;53.220;10.402;2023-07-22T13:15:30;5.43;;;3.60;;
13228;SDS011;6680;53.220;10.402;2023-07-22T13:17:57;4.10;;;3.70;;
13228;SDS011;6680;53.220;10.402;2023-07-22T13:20:24;3.60;;;3.10;;
13228;SDS011;6680;53.220;10.402;2023-07-22T13:22:51;4.13;;;2.90;;
13228;SDS011;6680;53.220;10.402;2023-07-22T13:25:17;4.13;;;3.30;;
13228;SDS011;6680;53.220;10.402;2023-07-22T13:27:44;3.73;;;3.37;;
13228;SDS011;6680;53.220;10.402;2023-07-22T13:30:11;4.17;;;3.40;;
13228;SDS011;6680;53.220;10.402;2023-07-22T13:32:39;4.20;;;3.50;;
13228;SDS011;6680;53.220;10.402;2023-07-22T13:35:07;4.00;;;3.60;;
13228;SDS011;6680;53.220;10.402;2023-07-22T13:37:34;3.63;;;3.27;;
13228;SDS011;6680;53.220;10.402;2023-07-22T13:40:01;7.20;;;3.30;;
13228;SDS011;6680;53.220;10.402;2023-07-22T13:42:34;5.73;;;3.40;;
13228;SDS011;6680;53.220;10.402;2023-07-22T13:45:01;5.13;;;3.80;;
13228;SDS011;6680;53.220;10.402;2023-07-22T13:47:28;4.57;;;3.33;;
13228;SDS011;6680;53.220;10.402;2023-07-22T13:49:56;3.67;;;3.33;;
13228;SDS011;6680;53.220;10.402;2023-07-22T13:52:22;4.60;;;2.90;;
13228;SDS011;6680;53.220;10.402;2023-07-22T13:54:49;3.83;;;3.10;;
13228;SDS011;6680;53.220;10.402;2023-07-22T13:57:16;3.20;;;2.90;;
13228;SDS011;6680;53.220;10.402;2023-07-22T13:59:42;4.57;;;3.10;;
13228;SDS011;6680;53.220;10.402;2023-07-22T14:02:09;3.73;;;3.43;;
13228;SDS011;6680;53.220;10.402;2023-07-22T14:04:36;4.33;;;3.93;;
13228;SDS011;6680;53.220;10.402;2023-07-22T14:07:05;3.50;;;3.20;;
13228;SDS011;6680;53.220;10.402;2023-07-22T14:09:31;4.10;;;3.60;;
13228;SDS011;6680;53.220;10.402;2023-07-22T14:11:58;4.57;;;3.80;;
13228;SDS011;6680;53.220;10.402;2023-07-22T14:14:25;4.53;;;3.50;;
13228;SDS011;6680;53.220;10.402;2023-07-22T14:16:53;3.70;;;3.37;;
13228;SDS011;6680;53.220;10.402;2023-07-22T14:19:21;4.33;;;3.87;;
13228;SDS011;6680;53.220;10.402;2023-07-22T14:21:47;13.03;;;4.87;;
13228;SDS011;6680;53.220;10.402;2023-07-22T14:24:15;3.37;;;3.07;;
13228;SDS011;6680;53.220;10.402;2023-07-22T14:26:42;4.10;;;3.47;;
13228;SDS011;6680;53.220;10.402;2023-07-22T14:29:09;18.43;;;8.00;;
13228;SDS011;6680;53.220;10.402;2023-07-22T14:31:35;7.10;;;4.27;;
13228;SDS011;6680;53.220;10.402;2023-07-22T14:34:02;5.20;;;3.77;;
13228;SDS011;6680;53.220;10.402;2023-07-22T14:36:29;7.70;;;4.30;;
13228;SDS011;6680;53.220;10.402;2023-07-22T14:38:55;4.53;;;3.33;;
13228;SDS011;6680;53.220;10.402;2023-07-22T14:41:24;3.77;;;3.10;;
13228;SDS011;6680;53.220;10.402;2023-07-22T14:43:50;5.10;;;3.67;;
13228;SDS011;6680;53.220;10.402;2023-07-22T14:46:17;4.40;;;2.97;;
13228;SDS011;6680;53.220;10.402;2023-07-22T14:48:44;7.13;;;3.43;;
13228;SDS011;6680;53.220;10.402;2023-07-22T14:51:11;4.10;;;3.13;;